Blue Hill Meteorological Observatory

42° 12' 44"N, 71° 06' 53"W, Elevation 635 ft.
Eastern Time

Hourly observations for the last 72 hours

Date Time Temperature (°F) Humi-
dity

(%)
Wind
(mph)
Pressure Rain (in) Sun
(W/m2)
ET
(in)
Air Dew 6 Hour 1 Hr 3 Hr 6 Hr Day
Alt
(in)
Sea
Level

(mb)
Max Min
20 02:00 76.1 74.6 95 WSW 11 G 15 29.78 1008.4 0.00 0 0.001
20 01:00 76.3 74.4 82.5 76.3 94 WSW 11 G 18 29.79 1008.7 0.00 0 0.000
20 00:00 77.0 74.8 93 WSW 10 G 18 29.79 1008.9 0.00 0 0.202
19 23:00 77.5 75.0 92 SW 13 G 18 29.81 1009.4 0.00 0 0.201
19 22:00 78.0 74.8 90 SW 12 G 20 29.82 1009.7 0.00 0 0.200
19 21:00 79.0 75.1 88 SW 12 G 19 29.81 1009.6 0.00 0 0.198
19 20:00 80.2 75.3 85 SW 12 G 19 29.81 1009.6 0.00 0 0.196
19 19:00 82.5 76.1 88.3 82.5 81 SW 11 G 16 29.80 1009.1 0.00 9 0.193
19 18:00 85.4 75.8 73 WSW 11 G 20 29.81 1009.4 0.00 60 0.185
19 17:00 87.1 76.6 71 WSW 10 G 20 29.80 1009.3 0.00 281 0.171
19 16:00 86.8 76.3 71 SW 13 G 19 29.81 1009.5 0.00 515 0.153
19 15:00 88.0 76.1 68 WSW 15 G 20 29.82 1010.0 0.00 591 0.132
19 14:00 87.2 75.8 69 WSW 7 G 16 29.83 1010.0 0.00 573 0.110
19 13:00 85.3 75.3 85.3 65.3 72 WSW 8 G 15 29.84 1010.7 0.00 842 0.086
19 12:00 82.5 73.0 73 SW 11 G 16 29.87 1011.5 0.00 872 0.062
19 11:00 79.7 70.7 74 WSW 8 G 12 29.89 1012.2 0.00 860 0.040
19 09:00 72.2 63.5 74 S 3 G 6 29.91 1012.8 0.00 554 0.011
19 08:00 68.0 60.9 78 NNW 3 G 4 29.92 1013.1 0.00 265 0.006
19 07:00 65.3 59.0 65.3 61.4 80 NNE 2 G 4 29.92 1013.2 0.00 135 0.003
19 06:00 62.7 59.4 89 N 7 G 10 29.92 1013.3 0.00 49 0.002
19 05:00 62.1 59.4 91 NNW 6 G 8 29.91 1012.9 0.00 12 0.002
19 04:00 62.0 59.3 91 NNW 5 G 8 29.90 1012.7 0.00 0 0.001
19 03:00 61.9 59.6 92 NNW 5 G 8 29.90 1012.6 0.00 0 0.000
19 02:00 62.0 60.3 94 N 7 G 8 29.90 1012.6 0.00 0 0.000
19 01:00 61.4 60.0 62.8 60.8 95 NE 6 G 6 29.92 1013.2 0.00 0 0.000
19 00:00 60.8 59.4 95 N 4 G 5 29.93 1013.6 0.02 0 0.084
18 23:00 61.2 59.8 95 ENE 6 G 9 29.94 1013.9 0.02 0 0.084
18 22:00 61.4 59.7 94 NE 5 G 8 29.94 1014.1 0.02 0 0.084
18 21:00 61.7 59.7 93 ENE 11 G 15 29.94 1014.0 0.02 0 0.083
18 20:00 62.3 59.9 92 ENE 6 G 10 29.96 1014.6 0.02 0 0.082
18 19:00 62.8 59.8 69.2 62.7 90 ENE 9 G 13 29.96 1014.5 0.02 7 0.081
18 18:00 63.1 59.5 88 ENE 6 G 12 29.97 1014.9 0.02 21 0.079
18 17:00 62.8 59.2 88 ENE 7 G 12 29.97 1015.0 0.02 37 0.076
18 16:00 65.4 60.8 85 NE 11 G 18 29.96 1014.7 0.02 243 0.066
18 15:00 67.2 61.9 83 ENE 12 G 17 29.96 1014.7 0.02 476 0.056
18 14:00 65.9 60.6 83 E 12 G 18 29.98 1015.4 0.02 406 0.046
18 13:00 65.6 61.0 66.1 61.8 85 ENE 14 G 23 29.99 1015.6 0.02 0.02 388 0.035
18 12:00 64.5 60.5 87 ENE 14 G 22 30.00 1016.0 0.02 316 0.027
18 11:00 63.7 61.3 92 ENE 10 G 16 30.00 1015.9 0.02 301 0.019
18 10:00 62.4 61.2 96 ENE 23 G 29 29.98 1015.3 0.01 0.02 0.02 592 0.008
18 09:00 62.2 61.0 96 NE 20 G 31 29.99 1015.5 0.01 0.01 148 0.005
18 08:00 63.1 61.9 96 NE 20 G 30 29.99 1015.4 0.00 67 0.003
18 07:00 65.7 64.8 71.1 65.7 97 NE 17 G 27 29.97 1015.0 0.00 67 0.001
18 06:00 67.6 66.7 97 ENE 16 G 25 29.94 1014.1 0.00 56 0.000
18 05:00 70.3 69.4 97 ENE 13 G 22 29.93 1013.6 0.00 12 0.000
18 04:00 70.7 69.8 97 NNE 9 G 10 29.92 1013.2 0.00 0 0.000
18 03:00 70.8 69.9 97 NNW 5 G 9 29.91 1013.0 0.00 0 0.000
18 02:00 71.0 70.1 97 NNW 13 G 16 29.87 1011.5 0.00 0 0.000
18 01:00 71.0 70.1 71.6 71.0 97 W 10 G 12 29.89 1012.2 0.06 0.27 0.00 0 0.000
18 00:00 71.3 70.4 97 W 11 G 15 29.92 1013.2 0.02 0.73 0 0.142
17 23:00 71.5 70.6 97 WSW 12 G 16 29.94 1013.9 0.04 0.71 0 0.142
17 22:00 71.5 70.3 96 WSW 9 G 14 29.92 1013.4 0.05 0.21 0.67 0 0.142
17 21:00 71.2 70.0 96 WSW 9 G 14 29.90 1012.7 0.08 0.62 0 0.142
17 20:00 71.2 70.0 96 WNW 7 G 9 29.90 1012.7 0.08 0.54 0 0.142
17 19:00 71.5 70.3 90.0 70.7 96 SSW 10 G 15 29.91 1012.9 0.07 0.38 0.46 0.46 0 0.141
17 18:00 71.4 70.2 96 SW 11 G 16 29.90 1012.5 0.12 0.39 0 0.140
17 17:00 70.9 69.1 94 WNW 20 G 29 29.89 1012.3 0.19 0.27 0 0.138
17 16:00 78.1 75.3 91 WNW 2 G 14 29.86 1011.1 0.08 0.08 0.08 123 0.130
17 15:00 85.2 76.4 75 SSW 13 G 19 29.85 1010.7 0.00 54 0.121
17 14:00 88.4 76.9 69 SSW 8 G 15 29.88 1011.9 0.00 318 0.103
17 13:00 88.8 76.0 88.8 75.2 66 WSW 10 G 18 29.89 1012.2 0.00 679 0.082
17 12:00 87.1 76.6 71 SW 11 G 18 29.92 1013.1 0.00 752 0.058
17 11:00 85.0 75.4 73 SSW 14 G 18 29.93 1013.6 0.00 564 0.040
17 10:00 80.2 73.1 79 WSW 11 G 16 29.94 1013.9 0.00 272 0.029
17 09:00 78.6 73.0 83 SW 10 G 15 29.95 1014.4 0.00 330 0.022
17 08:00 76.6 70.7 82 SW 14 G 18 29.96 1014.5 0.00 100 0.015
17 07:00 75.2 70.7 75.2 71.8 86 SW 9 G 14 29.95 1014.4 0.00 237 0.010
17 06:00 73.2 69.4 88 SW 11 G 15 29.95 1014.3 0.00 65 0.008
17 05:00 72.0 68.9 90 SW 10 G 15 29.95 1014.3 0.00 19 0.007
17 04:00 71.9 68.5 89 SW 10 G 15 29.95 1014.2 0.00 0 0.006
17 03:00 72.2 68.1 87 SSW 11 G 16 29.94 1013.9 0.00 0 0.004

Data generated by WxSolution Version 1.9.1.5, Build 2018.05.20.